Terminal Aerodrome Forecast
Issued by NWS Springfield, MO

Home | Current Version | Previous Version | Text Only | Print | Product List | Glossary On
Versions: 1 2 3 4 5 6 7 8 9 10 11 12 13 14 15 16 17 18 19 20 21 22 23 24
000
FTUS43 KSGF 240500
TAFSGF
TAF
KSGF 240520Z 2406/2506 32009KT P6SM BKN015 OVC025
     FM240900 31008KT 6SM -DZ BR OVC008
     FM241200 31009KT 2SM -RASN BR OVC007
     FM241700 30011KT P6SM -DZ OVC015
     FM242000 29012KT P6SM OVC020
     FM250300 24008KT P6SM SCT020=

USA.gov is the U.S. government's official web portal to all federal, state and local government web resources and services.